Lockwood, Missouri
Current Conditions -  °F | °C
As of 5:29 AM on Monday 22 Dec 2014 (Local Time) from KSGF Reporting Station
Overcast Overcast  
Wind Chill: 35°   Ceiling: 800
Heat Index: 42°   Visibility: 10mi
Dew Point: 39°   Wind: 13mph
Humidity: 89%   Direction: 150°SSE
Pressure: 29.65"   Gusts: NA
Location:  37.39°N, 93.95°W
Report Text: KSGF 221129Z 15011KT 10SM OVC008 06/04 A2965 RMK AO2 CIG 007V013 T00560039
Loading
Personal Weather Stations






























Interactive Weather Map New forecast layout! Learn more

10-Day Weather Forecast

Advertisements
Track Severe Weather on mobile